sensor_id;sensor_type;location;lat;lon;timestamp;pressure;altitude;pressure_sealevel;temperature;humidity
22181;BME280;11256;50.830;12.834;2023-05-20T00:04:33;98252.47;;;15.02;56.76
22181;BME280;11256;50.830;12.834;2023-05-20T00:09:33;98247.59;;;14.99;54.95
22181;BME280;11256;50.830;12.834;2023-05-20T00:14:34;98241.34;;;14.99;54.05
22181;BME280;11256;50.830;12.834;2023-05-20T00:19:34;98246.47;;;15.00;54.33
22181;BME280;11256;50.830;12.834;2023-05-20T00:24:34;98237.63;;;14.90;55.11
22181;BME280;11256;50.830;12.834;2023-05-20T00:29:35;98233.28;;;14.89;55.37
22181;BME280;11256;50.830;12.834;2023-05-20T00:34:35;98229.28;;;14.81;54.53
22181;BME280;11256;50.830;12.834;2023-05-20T00:39:36;98231.72;;;14.83;54.97
22181;BME280;11256;50.830;12.834;2023-05-20T00:44:36;98220.66;;;14.74;57.46
22181;BME280;11256;50.830;12.834;2023-05-20T00:49:36;98221.84;;;14.68;55.41
22181;BME280;11256;50.830;12.834;2023-05-20T00:54:38;98238.44;;;14.72;55.50
22181;BME280;11256;50.830;12.834;2023-05-20T00:59:39;98240.13;;;14.68;56.30
22181;BME280;11256;50.830;12.834;2023-05-20T01:04:40;98237.75;;;14.61;56.34
22181;BME280;11256;50.830;12.834;2023-05-20T01:09:45;98235.22;;;14.65;55.97
22181;BME280;11256;50.830;12.834;2023-05-20T01:14:48;98224.22;;;14.51;57.77
22181;BME280;11256;50.830;12.834;2023-05-20T01:19:49;98225.66;;;14.49;59.19
22181;BME280;11256;50.830;12.834;2023-05-20T01:24:50;98222.94;;;14.49;58.06
22181;BME280;11256;50.830;12.834;2023-05-20T01:29:53;98195.84;;;14.34;58.04
22181;BME280;11256;50.830;12.834;2023-05-20T01:34:54;98219.84;;;14.32;58.13
22181;BME280;11256;50.830;12.834;2023-05-20T01:39:56;98218.81;;;14.28;57.69
22181;BME280;11256;50.830;12.834;2023-05-20T01:44:58;98218.88;;;14.23;58.22
22181;BME280;11256;50.830;12.834;2023-05-20T01:49:58;98206.50;;;14.07;58.09
22181;BME280;11256;50.830;12.834;2023-05-20T01:54:58;98222.78;;;14.12;58.63
22181;BME280;11256;50.830;12.834;2023-05-20T01:59:59;98215.22;;;14.04;57.90
22181;BME280;11256;50.830;12.834;2023-05-20T02:05:00;98209.28;;;14.02;57.11
22181;BME280;11256;50.830;12.834;2023-05-20T02:10:00;98200.03;;;13.98;58.39
22181;BME280;11256;50.830;12.834;2023-05-20T02:15:02;98186.53;;;13.88;58.10
22181;BME280;11256;50.830;12.834;2023-05-20T02:20:02;98165.44;;;13.75;58.47
22181;BME280;11256;50.830;12.834;2023-05-20T02:25:08;98193.13;;;13.82;58.02
22181;BME280;11256;50.830;12.834;2023-05-20T02:30:10;98182.09;;;13.68;57.83
22181;BME280;11256;50.830;12.834;2023-05-20T02:35:10;98181.31;;;13.68;58.59
22181;BME280;11256;50.830;12.834;2023-05-20T02:40:11;98168.94;;;13.52;57.92
22181;BME280;11256;50.830;12.834;2023-05-20T02:45:12;98189.84;;;13.56;58.99
22181;BME280;11256;50.830;12.834;2023-05-20T02:50:13;98183.69;;;13.46;57.49
22181;BME280;11256;50.830;12.834;2023-05-20T02:55:13;98189.16;;;13.46;58.02
22181;BME280;11256;50.830;12.834;2023-05-20T03:00:14;98201.13;;;13.45;57.13
22181;BME280;11256;50.830;12.834;2023-05-20T03:05:15;98195.75;;;13.40;57.40
22181;BME280;11256;50.830;12.834;2023-05-20T03:10:15;98192.22;;;13.34;56.99
22181;BME280;11256;50.830;12.834;2023-05-20T03:15:16;98164.31;;;13.24;57.61
22181;BME280;11256;50.830;12.834;2023-05-20T03:20:16;98158.84;;;13.24;57.04
22181;BME280;11256;50.830;12.834;2023-05-20T03:25:16;98173.22;;;13.29;56.87
22181;BME280;11256;50.830;12.834;2023-05-20T03:30:18;98186.56;;;13.31;56.83
22181;BME280;11256;50.830;12.834;2023-05-20T03:35:18;98187.94;;;13.28;56.52
22181;BME280;11256;50.830;12.834;2023-05-20T03:40:19;98183.34;;;13.24;56.50
22181;BME280;11256;50.830;12.834;2023-05-20T03:45:22;98185.81;;;13.20;57.83
22181;BME280;11256;50.830;12.834;2023-05-20T03:50:34;98184.53;;;13.13;57.73
22181;BME280;11256;50.830;12.834;2023-05-20T03:55:35;98200.75;;;13.23;57.00
22181;BME280;11256;50.830;12.834;2023-05-20T04:00:35;98208.41;;;13.21;59.35
22181;BME280;11256;50.830;12.834;2023-05-20T04:05:36;98199.47;;;13.15;58.22
22181;BME280;11256;50.830;12.834;2023-05-20T04:10:42;98207.59;;;13.20;58.14
22181;BME280;11256;50.830;12.834;2023-05-20T04:15:46;98195.66;;;13.16;58.90
22181;BME280;11256;50.830;12.834;2023-05-20T04:20:46;98197.63;;;13.06;58.93
22181;BME280;11256;50.830;12.834;2023-05-20T04:25:48;98206.31;;;13.13;61.08
22181;BME280;11256;50.830;12.834;2023-05-20T04:30:57;98194.91;;;13.06;58.35
22181;BME280;11256;50.830;12.834;2023-05-20T04:35:58;98207.13;;;13.08;58.76
22181;BME280;11256;50.830;12.834;2023-05-20T04:41:00;98216.91;;;13.09;61.02
22181;BME280;11256;50.830;12.834;2023-05-20T04:46:01;98216.16;;;13.04;63.99
22181;BME280;11256;50.830;12.834;2023-05-20T04:51:05;98203.34;;;13.04;60.99
22181;BME280;11256;50.830;12.834;2023-05-20T04:56:06;98200.09;;;13.02;63.97
22181;BME280;11256;50.830;12.834;2023-05-20T05:01:07;98204.75;;;13.02;61.82
22181;BME280;11256;50.830;12.834;2023-05-20T05:06:07;98201.44;;;13.05;61.57
22181;BME280;11256;50.830;12.834;2023-05-20T05:11:08;98205.31;;;12.99;60.47
22181;BME280;11256;50.830;12.834;2023-05-20T05:16:08;98203.91;;;13.06;62.92
22181;BME280;11256;50.830;12.834;2023-05-20T05:21:09;98203.63;;;13.08;64.68
22181;BME280;11256;50.830;12.834;2023-05-20T05:26:10;98190.53;;;13.10;61.66
22181;BME280;11256;50.830;12.834;2023-05-20T05:31:11;98189.41;;;13.16;64.85
22181;BME280;11256;50.830;12.834;2023-05-20T05:36:11;98194.75;;;13.26;66.52
22181;BME280;11256;50.830;12.834;2023-05-20T05:41:12;98185.50;;;13.27;64.29
22181;BME280;11256;50.830;12.834;2023-05-20T05:46:12;98194.69;;;13.36;66.43
22181;BME280;11256;50.830;12.834;2023-05-20T05:51:14;98176.72;;;13.35;66.98
22181;BME280;11256;50.830;12.834;2023-05-20T05:56:15;98192.63;;;13.51;66.80
22181;BME280;11256;50.830;12.834;2023-05-20T06:01:16;98190.09;;;13.60;68.03
22181;BME280;11256;50.830;12.834;2023-05-20T06:06:17;98188.88;;;13.71;67.41
22181;BME280;11256;50.830;12.834;2023-05-20T06:11:17;98191.06;;;13.74;68.02
22181;BME280;11256;50.830;12.834;2023-05-20T06:16:17;98176.84;;;13.77;66.13
22181;BME280;11256;50.830;12.834;2023-05-20T06:21:18;98186.75;;;13.91;67.06
22181;BME280;11256;50.830;12.834;2023-05-20T06:26:18;98185.31;;;13.99;67.74
22181;BME280;11256;50.830;12.834;2023-05-20T06:31:19;98187.81;;;14.19;67.18
22181;BME280;11256;50.830;12.834;2023-05-20T06:36:19;98179.47;;;14.34;65.80
22181;BME280;11256;50.830;12.834;2023-05-20T06:41:20;98161.94;;;14.40;65.71
22181;BME280;11256;50.830;12.834;2023-05-20T06:46:24;98179.88;;;14.64;64.50
22181;BME280;11256;50.830;12.834;2023-05-20T06:51:29;98187.09;;;14.92;64.86
22181;BME280;11256;50.830;12.834;2023-05-20T06:56:30;98189.81;;;15.11;64.32
22181;BME280;11256;50.830;12.834;2023-05-20T07:01:31;98161.91;;;15.14;64.27
22181;BME280;11256;50.830;12.834;2023-05-20T07:06:32;98168.69;;;15.35;64.17
22181;BME280;11256;50.830;12.834;2023-05-20T07:11:33;98145.06;;;15.44;64.39
22181;BME280;11256;50.830;12.834;2023-05-20T07:16:33;98151.06;;;15.73;63.91
22181;BME280;11256;50.830;12.834;2023-05-20T07:21:34;98151.63;;;16.02;63.51
22181;BME280;11256;50.830;12.834;2023-05-20T07:26:53;98141.84;;;16.23;63.76
22181;BME280;11256;50.830;12.834;2023-05-20T07:31:54;98150.75;;;16.69;63.59
22181;BME280;11256;50.830;12.834;2023-05-20T07:36:54;98145.44;;;17.30;63.12
22181;BME280;11256;50.830;12.834;2023-05-20T07:41:56;98143.03;;;18.20;61.07
22181;BME280;11256;50.830;12.834;2023-05-20T07:46:57;98126.69;;;19.22;61.47
22181;BME280;11256;50.830;12.834;2023-05-20T07:51:58;98148.66;;;20.48;61.33
22181;BME280;11256;50.830;12.834;2023-05-20T07:56:58;98139.53;;;21.38;58.18
22181;BME280;11256;50.830;12.834;2023-05-20T08:02:00;98138.94;;;22.33;56.85
22181;BME280;11256;50.830;12.834;2023-05-20T08:07:01;98131.19;;;22.87;55.28
22181;BME280;11256;50.830;12.834;2023-05-20T08:12:12;98120.66;;;23.44;nan
22181;BME280;11256;50.830;12.834;2023-05-20T08:17:13;98121.81;;;23.86;50.42
22181;BME280;11256;50.830;12.834;2023-05-20T08:22:14;98096.91;;;24.17;50.85
22181;BME280;11256;50.830;12.834;2023-05-20T08:27:14;98106.31;;;24.78;49.68
22181;BME280;11256;50.830;12.834;2023-05-20T08:32:16;98091.91;;;25.07;47.30
22181;BME280;11256;50.830;12.834;2023-05-20T08:37:18;98096.59;;;25.41;47.68
22181;BME280;11256;50.830;12.834;2023-05-20T08:42:22;98094.47;;;25.95;45.02
22181;BME280;11256;50.830;12.834;2023-05-20T08:47:25;98092.97;;;26.72;44.99
22181;BME280;11256;50.830;12.834;2023-05-20T08:52:25;98094.63;;;27.06;43.88
22181;BME280;11256;50.830;12.834;2023-05-20T08:57:27;98094.44;;;26.92;42.68
22181;BME280;11256;50.830;12.834;2023-05-20T09:02:27;98084.56;;;27.57;41.80
22181;BME280;11256;50.830;12.834;2023-05-20T09:07:28;98070.69;;;27.64;42.34
22181;BME280;11256;50.830;12.834;2023-05-20T09:12:28;98087.47;;;27.71;41.64
22181;BME280;11256;50.830;12.834;2023-05-20T09:17:28;98075.06;;;28.01;41.15
22181;BME280;11256;50.830;12.834;2023-05-20T09:22:29;98067.78;;;27.90;39.57
22181;BME280;11256;50.830;12.834;2023-05-20T09:27:29;98053.06;;;28.36;40.40
22181;BME280;11256;50.830;12.834;2023-05-20T09:32:29;98072.31;;;28.52;39.92
22181;BME280;11256;50.830;12.834;2023-05-20T09:37:33;98040.19;;;28.25;39.77
22181;BME280;11256;50.830;12.834;2023-05-20T09:42:41;98040.34;;;28.39;39.34
22181;BME280;11256;50.830;12.834;2023-05-20T09:47:44;98024.50;;;28.57;39.64
22181;BME280;11256;50.830;12.834;2023-05-20T09:52:46;98027.19;;;28.43;39.29
22181;BME280;11256;50.830;12.834;2023-05-20T09:57:47;98022.00;;;28.38;39.19
22181;BME280;11256;50.830;12.834;2023-05-20T10:02:50;98002.53;;;27.94;40.08
22181;BME280;11256;50.830;12.834;2023-05-20T10:13:30;98009.19;;;27.43;41.03
22181;BME280;11256;50.830;12.834;2023-05-20T10:18:48;98008.66;;;26.68;40.55
22181;BME280;11256;50.830;12.834;2023-05-20T10:23:51;97996.16;;;26.55;41.41
22181;BME280;11256;50.830;12.834;2023-05-20T10:28:51;98005.41;;;25.88;42.48
22181;BME280;11256;50.830;12.834;2023-05-20T10:33:52;97997.38;;;25.38;43.22
22181;BME280;11256;50.830;12.834;2023-05-20T10:38:54;97995.81;;;25.18;43.40
22181;BME280;11256;50.830;12.834;2023-05-20T10:43:59;97994.63;;;25.00;44.11
22181;BME280;11256;50.830;12.834;2023-05-20T10:49:03;97991.81;;;24.77;44.31
22181;BME280;11256;50.830;12.834;2023-05-20T10:54:04;97964.66;;;24.48;44.88
22181;BME280;11256;50.830;12.834;2023-05-20T10:59:04;97981.84;;;24.38;45.56
22181;BME280;11256;50.830;12.834;2023-05-20T11:04:05;97978.13;;;24.31;45.88
22181;BME280;11256;50.830;12.834;2023-05-20T11:09:06;97964.91;;;24.24;45.65
22181;BME280;11256;50.830;12.834;2023-05-20T11:14:09;97962.44;;;24.38;47.44
22181;BME280;11256;50.830;12.834;2023-05-20T11:19:15;97953.03;;;24.43;47.18
22181;BME280;11256;50.830;12.834;2023-05-20T11:24:24;97944.84;;;24.50;47.04
22181;BME280;11256;50.830;12.834;2023-05-20T11:29:25;97952.53;;;24.75;48.00
22181;BME280;11256;50.830;12.834;2023-05-20T11:34:33;97939.66;;;24.64;46.87
22181;BME280;11256;50.830;12.834;2023-05-20T11:39:33;97940.44;;;24.64;46.79
22181;BME280;11256;50.830;12.834;2023-05-20T11:44:33;97925.69;;;24.07;46.79
22181;BME280;11256;50.830;12.834;2023-05-20T11:49:40;97922.53;;;24.43;46.96
22181;BME280;11256;50.830;12.834;2023-05-20T11:54:40;97912.03;;;24.33;46.69
22181;BME280;11256;50.830;12.834;2023-05-20T11:59:43;97912.88;;;24.18;47.78
22181;BME280;11256;50.830;12.834;2023-05-20T12:04:43;97918.41;;;23.99;47.48
22181;BME280;11256;50.830;12.834;2023-05-20T12:09:43;97916.81;;;23.98;47.97
22181;BME280;11256;50.830;12.834;2023-05-20T12:14:44;97902.44;;;23.92;49.08
22181;BME280;11256;50.830;12.834;2023-05-20T12:19:44;97901.06;;;24.02;48.13
22181;BME280;11256;50.830;12.834;2023-05-20T12:24:44;97900.75;;;24.22;48.60
22181;BME280;11256;50.830;12.834;2023-05-20T12:29:45;97888.41;;;24.39;47.79
22181;BME280;11256;50.830;12.834;2023-05-20T12:34:45;97863.91;;;24.41;47.55
22181;BME280;11256;50.830;12.834;2023-05-20T12:39:45;97888.94;;;24.63;48.18
22181;BME280;11256;50.830;12.834;2023-05-20T12:44:46;97871.94;;;24.46;47.83
22181;BME280;11256;50.830;12.834;2023-05-20T12:49:46;97885.94;;;24.53;48.79
22181;BME280;11256;50.830;12.834;2023-05-20T12:54:46;97875.84;;;24.45;48.84
22181;BME280;11256;50.830;12.834;2023-05-20T12:59:47;97899.31;;;24.66;48.41
22181;BME280;11256;50.830;12.834;2023-05-20T13:04:47;97886.94;;;24.45;48.13
22181;BME280;11256;50.830;12.834;2023-05-20T13:09:47;97879.38;;;24.42;48.37
22181;BME280;11256;50.830;12.834;2023-05-20T13:14:48;97883.31;;;24.60;48.84
22181;BME280;11256;50.830;12.834;2023-05-20T13:19:48;97869.97;;;24.65;48.79
22181;BME280;11256;50.830;12.834;2023-05-20T13:24:49;97877.09;;;25.08;49.01
22181;BME280;11256;50.830;12.834;2023-05-20T13:29:49;97857.47;;;25.20;48.23
22181;BME280;11256;50.830;12.834;2023-05-20T13:34:50;97852.19;;;25.34;49.06
22181;BME280;11256;50.830;12.834;2023-05-20T13:39:50;97833.03;;;25.25;47.92
22181;BME280;11256;50.830;12.834;2023-05-20T13:44:51;97835.34;;;25.46;48.22
22181;BME280;11256;50.830;12.834;2023-05-20T13:49:51;97842.41;;;25.21;47.51
22181;BME280;11256;50.830;12.834;2023-05-20T13:54:52;97837.56;;;25.37;47.82
22181;BME280;11256;50.830;12.834;2023-05-20T13:59:52;97827.63;;;25.36;48.17
22181;BME280;11256;50.830;12.834;2023-05-20T14:04:52;97829.22;;;25.37;46.91
22181;BME280;11256;50.830;12.834;2023-05-20T14:09:52;97819.41;;;25.43;47.56
22181;BME280;11256;50.830;12.834;2023-05-20T14:14:53;97807.97;;;25.22;47.54
22181;BME280;11256;50.830;12.834;2023-05-20T14:19:53;97816.16;;;25.15;47.75
22181;BME280;11256;50.830;12.834;2023-05-20T14:24:53;97815.56;;;25.25;48.09
22181;BME280;11256;50.830;12.834;2023-05-20T14:29:54;97809.56;;;25.23;48.60
22181;BME280;11256;50.830;12.834;2023-05-20T14:34:54;97797.28;;;25.24;48.27
22181;BME280;11256;50.830;12.834;2023-05-20T14:39:55;97796.38;;;25.16;48.68
22181;BME280;11256;50.830;12.834;2023-05-20T14:44:55;97801.00;;;25.09;48.13
22181;BME280;11256;50.830;12.834;2023-05-20T14:49:56;97790.78;;;25.13;48.22
22181;BME280;11256;50.830;12.834;2023-05-20T14:54:56;97794.78;;;25.15;48.54
22181;BME280;11256;50.830;12.834;2023-05-20T14:59:56;97798.59;;;25.07;47.37
22181;BME280;11256;50.830;12.834;2023-05-20T15:04:57;97812.66;;;24.95;47.79
22181;BME280;11256;50.830;12.834;2023-05-20T15:09:57;97790.31;;;24.85;48.79
22181;BME280;11256;50.830;12.834;2023-05-20T15:14:57;97784.38;;;24.64;48.31
22181;BME280;11256;50.830;12.834;2023-05-20T15:19:58;97789.13;;;24.63;48.23
22181;BME280;11256;50.830;12.834;2023-05-20T15:24:58;97781.91;;;24.59;49.12
22181;BME280;11256;50.830;12.834;2023-05-20T15:29:58;97782.38;;;24.42;48.69
22181;BME280;11256;50.830;12.834;2023-05-20T15:34:59;97777.41;;;24.32;48.77
22181;BME280;11256;50.830;12.834;2023-05-20T15:40:00;97779.28;;;24.05;49.32
22181;BME280;11256;50.830;12.834;2023-05-20T15:45:00;97784.53;;;23.91;49.11
22181;BME280;11256;50.830;12.834;2023-05-20T15:50:01;97753.38;;;23.79;49.94
22181;BME280;11256;50.830;12.834;2023-05-20T15:55:04;97763.81;;;24.04;49.59
22181;BME280;11256;50.830;12.834;2023-05-20T16:00:05;97773.59;;;23.98;49.56
22181;BME280;11256;50.830;12.834;2023-05-20T16:05:09;97774.97;;;23.89;51.07
22181;BME280;11256;50.830;12.834;2023-05-20T16:10:10;97766.09;;;23.99;51.16
22181;BME280;11256;50.830;12.834;2023-05-20T16:15:10;97760.13;;;23.97;51.30
22181;BME280;11256;50.830;12.834;2023-05-20T16:20:11;97753.38;;;23.79;50.95
22181;BME280;11256;50.830;12.834;2023-05-20T16:25:11;97755.19;;;23.52;50.82
22181;BME280;11256;50.830;12.834;2023-05-20T16:30:13;97750.28;;;23.46;51.45
22181;BME280;11256;50.830;12.834;2023-05-20T16:35:13;97742.34;;;23.44;51.72
22181;BME280;11256;50.830;12.834;2023-05-20T16:40:15;97749.50;;;23.45;51.34
22181;BME280;11256;50.830;12.834;2023-05-20T16:45:15;97724.13;;;23.24;51.27
22181;BME280;11256;50.830;12.834;2023-05-20T16:50:16;97744.00;;;23.30;51.66
22181;BME280;11256;50.830;12.834;2023-05-20T16:55:16;97744.44;;;23.16;51.74
22181;BME280;11256;50.830;12.834;2023-05-20T17:00:17;97750.19;;;23.08;52.09
22181;BME280;11256;50.830;12.834;2023-05-20T17:05:17;97755.72;;;23.08;51.65
22181;BME280;11256;50.830;12.834;2023-05-20T17:10:17;97751.50;;;23.14;51.75
22181;BME280;11256;50.830;12.834;2023-05-20T17:15:18;97757.78;;;23.11;51.90
22181;BME280;11256;50.830;12.834;2023-05-20T17:20:18;97747.53;;;22.96;51.78
22181;BME280;11256;50.830;12.834;2023-05-20T17:25:19;97754.34;;;22.83;51.93
22181;BME280;11256;50.830;12.834;2023-05-20T17:30:19;97769.13;;;22.75;52.12
22181;BME280;11256;50.830;12.834;2023-05-20T17:35:20;97758.34;;;22.54;52.02
22181;BME280;11256;50.830;12.834;2023-05-20T17:40:23;97771.72;;;22.52;53.10
22181;BME280;11256;50.830;12.834;2023-05-20T17:45:24;97769.31;;;22.51;52.94
22181;BME280;11256;50.830;12.834;2023-05-20T17:50:24;97769.75;;;22.53;52.77
22181;BME280;11256;50.830;12.834;2023-05-20T17:55:24;97763.31;;;22.49;53.05
22181;BME280;11256;50.830;12.834;2023-05-20T18:00:25;97781.88;;;22.48;52.93
22181;BME280;11256;50.830;12.834;2023-05-20T18:05:26;97779.94;;;22.37;53.33
22181;BME280;11256;50.830;12.834;2023-05-20T18:10:26;97774.94;;;22.27;53.32
22181;BME280;11256;50.830;12.834;2023-05-20T18:15:27;97780.44;;;22.27;53.06
22181;BME280;11256;50.830;12.834;2023-05-20T18:20:27;97783.28;;;22.15;53.52
22181;BME280;11256;50.830;12.834;2023-05-20T18:25:28;97791.13;;;22.13;53.37
22181;BME280;11256;50.830;12.834;2023-05-20T18:30:28;97792.22;;;21.96;54.12
22181;BME280;11256;50.830;12.834;2023-05-20T18:35:28;97790.97;;;21.94;54.21
22181;BME280;11256;50.830;12.834;2023-05-20T18:40:28;97798.84;;;21.80;54.46
22181;BME280;11256;50.830;12.834;2023-05-20T18:45:29;97801.88;;;21.75;54.38
22181;BME280;11256;50.830;12.834;2023-05-20T18:50:30;97802.13;;;21.58;54.52
22181;BME280;11256;50.830;12.834;2023-05-20T18:55:30;97800.63;;;21.48;55.15
22181;BME280;11256;50.830;12.834;2023-05-20T19:00:30;97828.31;;;21.40;54.71
22181;BME280;11256;50.830;12.834;2023-05-20T19:10:42;97814.34;;;21.09;55.92
22181;BME280;11256;50.830;12.834;2023-05-20T19:15:43;97840.75;;;21.10;55.49
22181;BME280;11256;50.830;12.834;2023-05-20T19:20:43;97838.91;;;21.02;55.93
22181;BME280;11256;50.830;12.834;2023-05-20T19:25:43;97845.13;;;20.99;54.80
22181;BME280;11256;50.830;12.834;2023-05-20T19:30:44;97833.88;;;20.92;55.26
22181;BME280;11256;50.830;12.834;2023-05-20T19:35:45;97844.59;;;20.85;55.19
22181;BME280;11256;50.830;12.834;2023-05-20T19:40:45;97841.41;;;20.83;54.54
22181;BME280;11256;50.830;12.834;2023-05-20T19:45:46;97840.03;;;20.77;55.43
22181;BME280;11256;50.830;12.834;2023-05-20T19:50:47;97842.66;;;20.73;55.35
22181;BME280;11256;50.830;12.834;2023-05-20T19:55:47;97828.16;;;20.52;55.84
22181;BME280;11256;50.830;12.834;2023-05-20T20:00:47;97833.88;;;20.47;56.22
22181;BME280;11256;50.830;12.834;2023-05-20T20:05:48;97832.00;;;20.39;56.15
22181;BME280;11256;50.830;12.834;2023-05-20T20:10:48;97819.69;;;20.25;55.54
22181;BME280;11256;50.830;12.834;2023-05-20T20:15:48;97820.09;;;20.15;55.83
22181;BME280;11256;50.830;12.834;2023-05-20T20:20:49;97829.25;;;20.07;56.74
22181;BME280;11256;50.830;12.834;2023-05-20T20:25:50;97832.88;;;19.99;57.04
22181;BME280;11256;50.830;12.834;2023-05-20T20:30:50;97825.81;;;19.89;57.98
22181;BME280;11256;50.830;12.834;2023-05-20T20:35:51;97834.16;;;19.81;56.46
22181;BME280;11256;50.830;12.834;2023-05-20T20:40:54;97822.75;;;19.70;57.72
22181;BME280;11256;50.830;12.834;2023-05-20T20:45:55;97825.38;;;19.67;56.72
22181;BME280;11256;50.830;12.834;2023-05-20T20:50:55;97821.50;;;19.68;55.57
22181;BME280;11256;50.830;12.834;2023-05-20T20:55:56;97822.28;;;19.68;55.05
22181;BME280;11256;50.830;12.834;2023-05-20T21:00:56;97827.44;;;19.70;54.96
22181;BME280;11256;50.830;12.834;2023-05-20T21:05:56;97823.75;;;19.66;54.74
22181;BME280;11256;50.830;12.834;2023-05-20T21:10:57;97827.66;;;19.65;54.32
22181;BME280;11256;50.830;12.834;2023-05-20T21:15:58;97826.72;;;19.61;54.36
22181;BME280;11256;50.830;12.834;2023-05-20T21:20:59;97827.06;;;19.59;54.14
22181;BME280;11256;50.830;12.834;2023-05-20T21:25:59;97821.88;;;19.58;54.04
22181;BME280;11256;50.830;12.834;2023-05-20T21:31:00;97811.53;;;19.55;53.85
22181;BME280;11256;50.830;12.834;2023-05-20T21:36:00;97815.44;;;19.54;53.80
22181;BME280;11256;50.830;12.834;2023-05-20T21:41:00;97814.97;;;19.52;53.79
22181;BME280;11256;50.830;12.834;2023-05-20T21:46:01;97811.78;;;19.50;53.89
22181;BME280;11256;50.830;12.834;2023-05-20T21:51:02;97811.97;;;19.45;53.87
22181;BME280;11256;50.830;12.834;2023-05-20T21:56:02;97813.44;;;19.42;54.05
22181;BME280;11256;50.830;12.834;2023-05-20T22:01:03;97814.28;;;19.34;53.82
22181;BME280;11256;50.830;12.834;2023-05-20T22:06:04;97792.56;;;19.12;53.72
22181;BME280;11256;50.830;12.834;2023-05-20T22:11:04;97813.38;;;19.22;54.02
22181;BME280;11256;50.830;12.834;2023-05-20T22:16:06;97796.00;;;19.09;53.98
22181;BME280;11256;50.830;12.834;2023-05-20T22:21:06;97805.34;;;19.08;53.82
22181;BME280;11256;50.830;12.834;2023-05-20T22:26:07;97790.25;;;18.94;53.57
22181;BME280;11256;50.830;12.834;2023-05-20T22:31:08;97800.25;;;18.98;54.04
22181;BME280;11256;50.830;12.834;2023-05-20T22:36:09;97794.97;;;18.93;54.30
22181;BME280;11256;50.830;12.834;2023-05-20T22:41:09;97789.97;;;18.87;54.27
22181;BME280;11256;50.830;12.834;2023-05-20T22:46:09;97783.53;;;18.83;54.13
22181;BME280;11256;50.830;12.834;2023-05-20T22:51:10;97766.50;;;18.69;54.29
22181;BME280;11256;50.830;12.834;2023-05-20T22:56:10;97773.59;;;18.70;54.40
22181;BME280;11256;50.830;12.834;2023-05-20T23:01:11;97757.34;;;18.56;54.35
22181;BME280;11256;50.830;12.834;2023-05-20T23:06:11;97760.31;;;18.43;54.37
22181;BME280;11256;50.830;12.834;2023-05-20T23:11:11;97755.81;;;18.38;54.25
22181;BME280;11256;50.830;12.834;2023-05-20T23:16:12;97760.31;;;18.43;54.54
22181;BME280;11256;50.830;12.834;2023-05-20T23:21:12;97758.56;;;18.38;54.67
22181;BME280;11256;50.830;12.834;2023-05-20T23:26:13;97758.38;;;18.35;54.67
22181;BME280;11256;50.830;12.834;2023-05-20T23:31:14;97763.06;;;18.26;54.51
22181;BME280;11256;50.830;12.834;2023-05-20T23:36:14;97768.25;;;18.19;54.48
22181;BME280;11256;50.830;12.834;2023-05-20T23:41:16;97761.16;;;18.18;54.81
22181;BME280;11256;50.830;12.834;2023-05-20T23:46:16;97762.94;;;18.05;54.16
22181;BME280;11256;50.830;12.834;2023-05-20T23:51:18;97760.91;;;17.94;55.44
22181;BME280;11256;50.830;12.834;2023-05-20T23:56:18;97754.00;;;17.71;59.06
